Time;durP1;ratioP1;P1;durP2;ratioP2;P2;SDS_P1;SDS_P2;PMS_P1;PMS_P2;Temp;Humidity;BMP_temperature;BMP_pressure;BME280_temperature;BME280_humidity;BME280_pressure;Samples;Min_cycle;Max_cycle;Signal;HPM_P1;HPM_P2
2023/09/03 00:01:26;;;;;;;;;;;22.00;63.20;;;;;;5093719;28;21293;-56
2023/09/03 00:03:51;;;;;;;;;;;22.00;63.50;;;;;;5092866;28;19999;-56
2023/09/03 00:06:17;;;;;;;;;;;22.10;63.60;;;;;;5093376;28;19912;-56
2023/09/03 00:08:42;;;;;;;;;;;22.00;63.50;;;;;;5094087;28;19908;-56
2023/09/03 00:11:08;;;;;;;;;;;22.00;63.60;;;;;;5094044;28;19919;-56
2023/09/03 00:13:33;;;;;;;;;;;22.00;63.80;;;;;;5093856;28;19908;-56
2023/09/03 00:15:58;;;;;;;;;;;22.00;63.70;;;;;;5092372;28;20329;-56
2023/09/03 00:18:24;;;;;;;;;;;22.00;63.40;;;;;;5093822;28;20350;-56
2023/09/03 00:20:56;;;;;;;;;;;21.90;63.70;;;;;;5091415;28;19912;-56
2023/09/03 00:23:21;;;;;;;;;;;22.00;63.80;;;;;;5094098;28;19912;-56
2023/09/03 00:25:47;;;;;;;;;;;22.00;63.80;;;;;;5080925;28;19982;-56
2023/09/03 00:28:12;;;;;;;;;;;21.90;63.50;;;;;;5093610;28;20000;-56
2023/09/03 00:30:38;;;;;;;;;;;21.90;63.80;;;;;;5093694;28;20379;-56
2023/09/03 00:33:03;;;;;;;;;;;21.90;64.50;;;;;;5093553;28;19908;-56
2023/09/03 00:35:29;;;;;;;;;;;21.90;63.60;;;;;;5089291;28;19958;-56
2023/09/03 00:37:57;;;;;;;;;;;21.90;63.40;;;;;;5093524;28;20391;-56
2023/09/03 00:40:22;;;;;;;;;;;21.90;63.80;;;;;;5092292;28;19951;-56
2023/09/03 00:42:48;;;;;;;;;;;21.90;63.80;;;;;;5093482;28;20371;-56
2023/09/03 00:45:13;;;;;;;;;;;22.00;63.80;;;;;;5092160;28;19943;-56
2023/09/03 00:47:39;;;;;;;;;;;21.90;63.60;;;;;;5092143;28;19951;-58
2023/09/03 00:50:04;;;;;;;;;;;21.90;63.70;;;;;;5091209;28;19928;-56
2023/09/03 00:52:30;;;;;;;;;;;22.00;63.80;;;;;;5092108;28;19962;-56
2023/09/03 00:54:55;;;;;;;;;;;21.90;63.60;;;;;;5087924;28;19909;-56
2023/09/03 00:57:21;;;;;;;;;;;22.00;63.90;;;;;;5078390;28;19916;-56
2023/09/03 00:59:47;;;;;;;;;;;21.90;63.80;;;;;;5093207;28;19962;-56
2023/09/03 01:02:14;;;;;;;;;;;21.90;63.90;;;;;;5093260;28;19909;-57
2023/09/03 01:04:39;;;;;;;;;;;22.00;63.90;;;;;;5093111;28;19954;-56
2023/09/03 01:07:05;;;;;;;;;;;22.00;63.90;;;;;;5089201;28;19908;-56
2023/09/03 01:09:30;;;;;;;;;;;21.90;64.10;;;;;;5093107;28;20441;-56
2023/09/03 01:11:56;;;;;;;;;;;21.80;64.00;;;;;;5074877;28;19908;-56
2023/09/03 01:14:28;;;;;;;;;;;21.90;64.10;;;;;;5092891;28;19934;-56
2023/09/03 01:16:56;;;;;;;;;;;21.80;64.20;;;;;;5076989;28;19912;-56
2023/09/03 01:19:40;;;;;;;;;;;21.80;64.20;;;;;;5072688;28;19924;-56
2023/09/03 01:22:16;;;;;;;;;;;21.80;64.20;;;;;;5088460;28;19908;-56
2023/09/03 01:24:47;;;;;;;;;;;21.80;64.20;;;;;;5088148;28;20371;-56
2023/09/03 01:27:13;;;;;;;;;;;21.80;64.20;;;;;;5073299;28;19913;-56
2023/09/03 01:29:41;;;;;;;;;;;21.80;64.10;;;;;;5092980;28;19912;-56
2023/09/03 01:32:06;;;;;;;;;;;21.80;64.20;;;;;;5091724;28;20283;-56
2023/09/03 01:34:32;;;;;;;;;;;21.80;64.40;;;;;;5092833;28;19916;-55
2023/09/03 01:36:57;;;;;;;;;;;21.80;64.30;;;;;;5090513;28;20352;-55
2023/09/03 01:39:23;;;;;;;;;;;21.80;64.30;;;;;;5091791;28;19961;-56
2023/09/03 01:41:48;;;;;;;;;;;21.80;64.40;;;;;;5092932;28;20002;-56
2023/09/03 01:44:14;;;;;;;;;;;21.80;64.40;;;;;;5091508;28;20287;-56
2023/09/03 01:46:48;;;;;;;;;;;21.80;64.40;;;;;;5091372;28;20321;-55
2023/09/03 01:49:29;;;;;;;;;;;21.80;64.40;;;;;;5074444;28;20075;-56
2023/09/03 01:52:14;;;;;;;;;;;21.80;64.40;;;;;;5090396;28;19919;-56
2023/09/03 01:54:45;;;;;;;;;;;21.80;64.50;;;;;;5089329;28;19991;-56
2023/09/03 01:57:12;;;;;;;;;;;21.80;64.40;;;;;;5077918;28;19940;-56
2023/09/03 01:59:41;;;;;;;;;;;21.80;64.30;;;;;;5070558;28;19924;-56
2023/09/03 02:02:07;;;;;;;;;;;21.80;64.50;;;;;;5071453;28;19909;-56
2023/09/03 02:04:32;;;;;;;;;;;21.80;64.40;;;;;;5072436;28;19950;-56
2023/09/03 02:06:58;;;;;;;;;;;21.80;64.30;;;;;;5080451;28;20070;-55
2023/09/03 02:09:23;;;;;;;;;;;21.80;64.50;;;;;;5092526;28;19908;-56
2023/09/03 02:11:49;;;;;;;;;;;21.80;64.60;;;;;;5092546;28;19916;-55
2023/09/03 02:14:14;;;;;;;;;;;21.80;64.50;;;;;;5092420;28;20444;-56
2023/09/03 02:16:40;;;;;;;;;;;21.80;64.50;;;;;;5090232;28;19916;-56
2023/09/03 02:19:05;;;;;;;;;;;21.80;64.40;;;;;;5096091;28;19914;-56
2023/09/03 02:21:31;;;;;;;;;;;21.80;64.60;;;;;;5093868;28;19938;-56
2023/09/03 02:23:56;;;;;;;;;;;21.80;64.30;;;;;;5096227;28;19934;-56
2023/09/03 02:26:21;;;;;;;;;;;21.80;64.50;;;;;;5086022;28;19916;-56
2023/09/03 02:28:47;;;;;;;;;;;21.70;64.50;;;;;;5096196;28;19919;-56
2023/09/03 02:31:12;;;;;;;;;;;21.70;64.50;;;;;;5096087;28;19954;-57
2023/09/03 02:33:38;;;;;;;;;;;21.70;64.60;;;;;;5096174;28;19912;-56
2023/09/03 02:36:03;;;;;;;;;;;21.70;64.50;;;;;;5095777;28;19909;-56
2023/09/03 02:38:29;;;;;;;;;;;21.80;64.50;;;;;;5091236;28;19916;-56
2023/09/03 02:40:54;;;;;;;;;;;21.80;64.60;;;;;;5093699;28;19970;-56
2023/09/03 02:43:20;;;;;;;;;;;21.70;64.70;;;;;;5095717;28;20382;-55
2023/09/03 02:45:45;;;;;;;;;;;21.80;64.50;;;;;;5094405;28;20279;-56
2023/09/03 02:48:11;;;;;;;;;;;21.80;64.60;;;;;;5095771;28;19977;-56
2023/09/03 02:50:37;;;;;;;;;;;21.80;64.60;;;;;;5086402;28;20292;-56
2023/09/03 02:53:05;;;;;;;;;;;21.70;64.60;;;;;;5075279;28;19908;-56
2023/09/03 02:55:30;;;;;;;;;;;21.70;64.70;;;;;;5074527;28;19909;-56
2023/09/03 02:57:56;;;;;;;;;;;21.70;64.60;;;;;;5075093;28;20261;-56
2023/09/03 03:00:23;;;;;;;;;;;21.70;64.60;;;;;;5075373;28;20296;-56
2023/09/03 03:02:48;;;;;;;;;;;21.70;65.60;;;;;;5079984;28;19942;-56
2023/09/03 03:05:14;;;;;;;;;;;21.70;64.70;;;;;;5095407;28;20334;-56
2023/09/03 03:07:41;;;;;;;;;;;21.70;64.70;;;;;;5093321;28;19912;-55
2023/09/03 03:10:06;;;;;;;;;;;21.70;65.00;;;;;;5095216;28;19908;-56
2023/09/03 03:12:32;;;;;;;;;;;21.70;65.00;;;;;;5095409;28;19961;-56
2023/09/03 03:14:57;;;;;;;;;;;21.60;64.90;;;;;;5083290;28;19948;-56
2023/09/03 03:17:23;;;;;;;;;;;21.60;64.90;;;;;;5074732;28;19913;-56
2023/09/03 03:19:49;;;;;;;;;;;21.60;64.90;;;;;;5074797;28;19947;-56
2023/09/03 03:22:15;;;;;;;;;;;21.60;65.00;;;;;;5086416;28;19934;-56
2023/09/03 03:24:40;;;;;;;;;;;21.60;65.00;;;;;;5091351;28;19913;-56
2023/09/03 03:27:06;;;;;;;;;;;21.60;64.90;;;;;;5084912;28;20406;-56
2023/09/03 03:29:32;;;;;;;;;;;21.60;65.00;;;;;;5094480;28;19915;-56
2023/09/03 03:31:58;;;;;;;;;;;21.60;65.00;;;;;;5094926;28;19912;-56
2023/09/03 03:34:25;;;;;;;;;;;21.60;65.00;;;;;;5089485;28;19918;-56
2023/09/03 03:36:50;;;;;;;;;;;21.60;65.00;;;;;;5091403;28;19916;-56
2023/09/03 03:39:16;;;;;;;;;;;21.60;65.00;;;;;;5093625;28;20283;-56
2023/09/03 03:41:41;;;;;;;;;;;21.60;64.80;;;;;;5094591;28;19908;-56
2023/09/03 03:44:07;;;;;;;;;;;21.60;64.80;;;;;;5093049;28;19954;-56
2023/09/03 03:46:32;;;;;;;;;;;21.60;64.80;;;;;;5094595;28;19915;-56
2023/09/03 03:48:58;;;;;;;;;;;21.60;64.80;;;;;;5094243;28;19916;-56
2023/09/03 03:51:23;;;;;;;;;;;21.60;64.90;;;;;;5092190;28;19951;-56
2023/09/03 03:53:51;;;;;;;;;;;21.60;64.90;;;;;;5094472;28;19957;-56
2023/09/03 03:56:17;;;;;;;;;;;21.50;64.80;;;;;;5076891;28;19908;-56
2023/09/03 03:58:42;;;;;;;;;;;21.60;64.90;;;;;;5093860;28;19915;-56
2023/09/03 04:01:17;;;;;;;;;;;21.60;64.80;;;;;;5091503;28;19916;-56
2023/09/03 04:03:43;;;;;;;;;;;21.60;64.70;;;;;;5094183;28;19912;-56
2023/09/03 04:06:09;;;;;;;;;;;21.60;64.80;;;;;;5094280;28;19908;-56
2023/09/03 04:08:35;;;;;;;;;;;21.60;64.90;;;;;;5074968;28;19913;-56
2023/09/03 04:11:01;;;;;;;;;;;21.60;64.80;;;;;;5073789;28;19909;-56
2023/09/03 04:13:27;;;;;;;;;;;21.60;64.80;;;;;;5073247;28;19908;-55
2023/09/03 04:15:53;;;;;;;;;;;21.60;64.70;;;;;;5091655;28;20299;-56
2023/09/03 04:18:18;;;;;;;;;;;21.60;64.70;;;;;;5090624;28;20372;-56
2023/09/03 04:20:43;;;;;;;;;;;21.60;64.60;;;;;;5093942;28;20279;-56
2023/09/03 04:23:09;;;;;;;;;;;21.60;64.70;;;;;;5090214;28;19912;-56
2023/09/03 04:25:34;;;;;;;;;;;21.60;64.70;;;;;;5082717;28;19908;-56
2023/09/03 04:28:00;;;;;;;;;;;21.60;64.70;;;;;;5080673;28;19995;-55
2023/09/03 04:30:25;;;;;;;;;;;21.60;64.70;;;;;;5093989;28;19909;-56
2023/09/03 04:32:51;;;;;;;;;;;21.60;64.80;;;;;;5092304;28;20261;-56
2023/09/03 04:35:16;;;;;;;;;;;21.50;64.70;;;;;;5093593;28;19908;-56
2023/09/03 04:37:43;;;;;;;;;;;21.50;64.90;;;;;;5090902;28;20011;-56
2023/09/03 04:40:09;;;;;;;;;;;21.50;64.80;;;;;;5093138;28;19998;-56
2023/09/03 04:42:34;;;;;;;;;;;21.60;64.90;;;;;;5093421;28;20049;-55
2023/09/03 04:45:00;;;;;;;;;;;21.60;64.90;;;;;;5093508;28;20363;-56
2023/09/03 04:47:25;;;;;;;;;;;21.50;64.90;;;;;;5092109;28;19938;-57
2023/09/03 04:49:51;;;;;;;;;;;21.50;64.90;;;;;;5093332;28;19924;-56
2023/09/03 04:52:16;;;;;;;;;;;21.50;64.90;;;;;;5090854;28;19915;-55
2023/09/03 04:54:41;;;;;;;;;;;21.50;64.80;;;;;;5085950;28;20376;-58
2023/09/03 04:57:07;;;;;;;;;;;21.50;64.90;;;;;;5083735;28;20029;-56
2023/09/03 04:59:33;;;;;;;;;;;21.50;65.00;;;;;;5093350;28;19914;-56
2023/09/03 05:01:58;;;;;;;;;;;21.50;64.90;;;;;;5092110;28;20330;-56
2023/09/03 05:04:24;;;;;;;;;;;21.60;65.00;;;;;;5093241;28;19946;-56
2023/09/03 05:06:49;;;;;;;;;;;21.50;64.80;;;;;;5091595;28;19915;-56
2023/09/03 05:09:15;;;;;;;;;;;21.60;64.90;;;;;;5090828;28;19919;-56
2023/09/03 05:11:42;;;;;;;;;;;21.50;64.90;;;;;;5092259;28;19915;-56
2023/09/03 05:14:07;;;;;;;;;;;21.60;65.00;;;;;;5093039;28;20403;-56
2023/09/03 05:16:33;;;;;;;;;;;21.50;64.90;;;;;;5093061;28;19973;-56
2023/09/03 05:19:04;;;;;;;;;;;21.50;64.80;;;;;;5090337;28;19916;-56
2023/09/03 05:21:30;;;;;;;;;;;21.50;64.80;;;;;;5098620;28;19915;-56
2023/09/03 05:23:55;;;;;;;;;;;21.60;64.90;;;;;;5090774;28;19916;-55
2023/09/03 05:26:20;;;;;;;;;;;21.50;64.90;;;;;;5075389;28;19979;-56
2023/09/03 05:28:46;;;;;;;;;;;21.50;65.00;;;;;;5078681;28;19912;-56
2023/09/03 05:31:11;;;;;;;;;;;21.50;65.10;;;;;;5092838;28;19909;-56
2023/09/03 05:33:37;;;;;;;;;;;21.50;64.80;;;;;;5092894;28;20402;-55
2023/09/03 05:36:03;;;;;;;;;;;21.50;64.90;;;;;;5085680;28;19913;-56
2023/09/03 05:38:28;;;;;;;;;;;21.50;65.00;;;;;;5090334;28;20018;-56
2023/09/03 05:40:56;;;;;;;;;;;21.50;65.00;;;;;;5092861;28;20019;-56
2023/09/03 05:43:21;;;;;;;;;;;21.50;65.00;;;;;;5092801;28;19919;-56
2023/09/03 05:45:48;;;;;;;;;;;21.50;65.30;;;;;;5091341;28;19998;-56
2023/09/03 05:48:13;;;;;;;;;;;21.50;65.30;;;;;;5092749;28;19912;-56
2023/09/03 05:50:38;;;;;;;;;;;21.50;65.30;;;;;;5089961;28;19928;-56
2023/09/03 05:53:04;;;;;;;;;;;21.50;65.60;;;;;;5088266;28;19912;-56
2023/09/03 05:55:30;;;;;;;;;;;21.40;65.40;;;;;;5092615;28;20287;-56
2023/09/03 05:57:55;;;;;;;;;;;21.40;65.50;;;;;;5096507;28;19912;-56
2023/09/03 06:00:21;;;;;;;;;;;21.40;65.60;;;;;;5096572;28;19908;-56
2023/09/03 06:02:48;;;;;;;;;;;21.40;65.60;;;;;;5096538;28;20383;-56
2023/09/03 06:05:14;;;;;;;;;;;21.40;65.70;;;;;;5090438;28;19912;-56
2023/09/03 06:07:39;;;;;;;;;;;21.40;65.60;;;;;;5088820;28;20326;-56
2023/09/03 06:10:05;;;;;;;;;;;21.40;65.70;;;;;;5096339;28;19908;-56
2023/09/03 06:12:31;;;;;;;;;;;21.40;65.70;;;;;;5096309;28;19908;-56
2023/09/03 06:14:56;;;;;;;;;;;21.40;65.80;;;;;;5096304;28;19915;-56
2023/09/03 06:17:22;;;;;;;;;;;21.40;65.70;;;;;;5081309;28;19917;-56
2023/09/03 06:19:48;;;;;;;;;;;21.40;65.50;;;;;;5075889;28;19908;-56
2023/09/03 06:22:14;;;;;;;;;;;21.40;65.80;;;;;;5080548;28;20282;-56
2023/09/03 06:24:40;;;;;;;;;;;21.40;65.80;;;;;;5089008;28;19912;-55
2023/09/03 06:27:05;;;;;;;;;;;21.40;65.80;;;;;;5075816;28;20280;-56
2023/09/03 06:29:30;;;;;;;;;;;21.40;65.90;;;;;;5074619;28;19909;-56
2023/09/03 06:31:56;;;;;;;;;;;21.40;65.90;;;;;;5075810;28;20003;-55
2023/09/03 06:34:22;;;;;;;;;;;21.40;66.00;;;;;;5078220;28;20429;-56
2023/09/03 06:36:48;;;;;;;;;;;21.40;66.00;;;;;;5092629;28;19916;-55
2023/09/03 06:39:13;;;;;;;;;;;21.40;66.00;;;;;;5070867;28;19939;-56
2023/09/03 06:41:39;;;;;;;;;;;21.40;66.00;;;;;;5055469;28;19909;-56
2023/09/03 06:44:04;;;;;;;;;;;21.40;66.00;;;;;;5055529;28;19915;-55
2023/09/03 06:46:30;;;;;;;;;;;21.40;66.00;;;;;;5091132;28;19912;-56
2023/09/03 06:48:55;;;;;;;;;;;21.40;66.10;;;;;;5091865;28;19913;-56
2023/09/03 06:51:21;;;;;;;;;;;21.40;66.00;;;;;;5095583;28;19908;-56
2023/09/03 06:53:46;;;;;;;;;;;21.40;66.00;;;;;;5093266;28;19912;-56
2023/09/03 06:56:12;;;;;;;;;;;21.40;66.00;;;;;;5079231;28;19951;-56
2023/09/03 06:58:38;;;;;;;;;;;21.40;66.00;;;;;;5083492;28;19916;-55
2023/09/03 07:01:04;;;;;;;;;;;21.40;65.90;;;;;;5094377;28;19923;-56
2023/09/03 07:03:30;;;;;;;;;;;21.40;66.10;;;;;;5094544;28;19911;-56
2023/09/03 07:05:55;;;;;;;;;;;21.40;66.00;;;;;;5095305;28;19999;-56
2023/09/03 07:08:20;;;;;;;;;;;21.40;66.10;;;;;;5093101;28;20364;-56
2023/09/03 07:10:46;;;;;;;;;;;21.40;66.20;;;;;;5095441;28;20364;-55
2023/09/03 07:13:11;;;;;;;;;;;21.40;66.00;;;;;;5092255;28;20324;-56
2023/09/03 07:15:37;;;;;;;;;;;21.30;66.00;;;;;;5095155;28;19908;-56
2023/09/03 07:18:03;;;;;;;;;;;21.30;66.10;;;;;;5095101;28;20272;-56
2023/09/03 07:20:28;;;;;;;;;;;21.40;66.10;;;;;;5095041;28;20321;-55
2023/09/03 07:22:54;;;;;;;;;;;21.40;66.10;;;;;;5092707;28;19919;-55
2023/09/03 07:25:19;;;;;;;;;;;21.40;66.10;;;;;;5086084;28;19954;-56
2023/09/03 07:27:45;;;;;;;;;;;21.40;66.20;;;;;;5074726;28;20356;-56
2023/09/03 07:30:11;;;;;;;;;;;21.40;66.20;;;;;;5073408;28;19943;-55
2023/09/03 07:32:37;;;;;;;;;;;21.40;66.20;;;;;;5088485;28;19965;-56
2023/09/03 07:35:05;;;;;;;;;;;21.40;66.30;;;;;;5094630;28;19914;-56
2023/09/03 07:37:31;;;;;;;;;;;21.40;66.30;;;;;;5085741;28;19916;-56
2023/09/03 07:39:56;;;;;;;;;;;21.40;66.40;;;;;;5073031;28;19909;-56
2023/09/03 07:42:22;;;;;;;;;;;21.30;66.40;;;;;;5072947;28;19908;-56
2023/09/03 07:44:47;;;;;;;;;;;21.40;66.50;;;;;;5074375;28;19920;-56
2023/09/03 07:47:13;;;;;;;;;;;21.40;66.60;;;;;;5073708;28;19999;-56
2023/09/03 07:49:38;;;;;;;;;;;21.40;66.70;;;;;;5092421;28;19931;-56
2023/09/03 07:52:06;;;;;;;;;;;21.40;66.50;;;;;;5092208;28;19951;-56
2023/09/03 07:54:31;;;;;;;;;;;21.30;66.70;;;;;;5055090;28;19909;-55
2023/09/03 07:56:57;;;;;;;;;;;21.40;66.60;;;;;;5073939;28;20261;-56
2023/09/03 07:59:22;;;;;;;;;;;21.40;66.60;;;;;;5089477;28;19918;-56
2023/09/03 08:01:48;;;;;;;;;;;21.40;66.60;;;;;;5094254;28;19912;-56
2023/09/03 08:04:13;;;;;;;;;;;21.40;66.60;;;;;;5094153;28;19957;-55
2023/09/03 08:06:38;;;;;;;;;;;21.40;66.60;;;;;;5094189;28;19919;-56
2023/09/03 08:09:05;;;;;;;;;;;21.40;66.60;;;;;;5091980;28;19912;-56
2023/09/03 08:11:31;;;;;;;;;;;21.40;66.50;;;;;;5094188;28;19908;-56
2023/09/03 08:13:57;;;;;;;;;;;21.40;66.70;;;;;;5094002;28;19966;-55
2023/09/03 08:16:22;;;;;;;;;;;21.40;66.50;;;;;;5093854;28;19931;-56
2023/09/03 08:18:48;;;;;;;;;;;21.40;66.60;;;;;;5091227;28;19920;-56
2023/09/03 08:21:13;;;;;;;;;;;21.40;66.50;;;;;;5093878;28;19933;-56
2023/09/03 08:23:40;;;;;;;;;;;21.40;66.70;;;;;;5091520;28;19912;-55
2023/09/03 08:26:06;;;;;;;;;;;21.40;66.70;;;;;;5081020;28;20306;-55
2023/09/03 08:28:31;;;;;;;;;;;21.40;66.50;;;;;;5088620;28;19917;-56
2023/09/03 08:30:57;;;;;;;;;;;21.40;66.50;;;;;;5073464;28;19908;-56
2023/09/03 08:33:22;;;;;;;;;;;21.40;66.60;;;;;;5073346;28;19998;-56
2023/09/03 08:35:48;;;;;;;;;;;21.40;66.50;;;;;;5072838;28;19966;-55
2023/09/03 08:38:13;;;;;;;;;;;21.40;66.50;;;;;;5090269;28;19923;-56
2023/09/03 08:40:39;;;;;;;;;;;21.40;66.40;;;;;;5093589;28;19918;-55
2023/09/03 08:43:05;;;;;;;;;;;21.40;66.20;;;;;;5092128;28;20023;-56
2023/09/03 08:45:31;;;;;;;;;;;21.40;66.30;;;;;;5093536;28;19908;-55
2023/09/03 08:47:57;;;;;;;;;;;21.40;66.30;;;;;;5092158;28;19954;-54
2023/09/03 08:50:22;;;;;;;;;;;21.40;66.30;;;;;;5091135;28;20296;-56
2023/09/03 08:52:47;;;;;;;;;;;21.40;66.20;;;;;;5093289;28;19908;-56
2023/09/03 08:55:13;;;;;;;;;;;21.40;66.20;;;;;;5082903;28;19965;-57
2023/09/03 08:57:39;;;;;;;;;;;21.40;66.10;;;;;;5071822;28;19917;-56
2023/09/03 09:00:10;;;;;;;;;;;21.50;66.20;;;;;;5088520;28;19912;-55
2023/09/03 09:02:36;;;;;;;;;;;21.50;66.10;;;;;;5100262;28;19915;-56
2023/09/03 09:05:02;;;;;;;;;;;21.60;65.80;;;;;;5091958;28;20360;-56
2023/09/03 09:07:27;;;;;;;;;;;21.60;65.90;;;;;;5093114;28;19914;-56
2023/09/03 09:09:58;;;;;;;;;;;21.60;65.60;;;;;;5083590;28;19912;-55
2023/09/03 09:12:42;;;;;;;;;;;21.70;65.70;;;;;;5097849;28;19938;-56
2023/09/03 09:15:08;;;;;;;;;;;21.70;65.50;;;;;;5092880;28;19954;-56
2023/09/03 09:17:40;;;;;;;;;;;21.60;65.60;;;;;;5093009;28;20043;-56
2023/09/03 09:20:06;;;;;;;;;;;21.60;65.50;;;;;;5089911;28;19913;-56
2023/09/03 09:22:38;;;;;;;;;;;21.60;65.50;;;;;;5083307;28;19919;-56
2023/09/03 09:25:03;;;;;;;;;;;21.50;65.50;;;;;;5072206;28;20007;-56
2023/09/03 09:27:29;;;;;;;;;;;21.60;65.80;;;;;;5074645;28;20457;-56
2023/09/03 09:29:54;;;;;;;;;;;21.60;65.40;;;;;;5077059;28;19947;-56
2023/09/03 09:32:21;;;;;;;;;;;21.60;65.60;;;;;;5087722;28;19962;-56
2023/09/03 09:34:46;;;;;;;;;;;21.60;65.50;;;;;;5097186;28;20283;-55
2023/09/03 09:37:13;;;;;;;;;;;21.60;65.70;;;;;;5096863;28;19999;-56
2023/09/03 09:39:44;;;;;;;;;;;21.60;65.70;;;;;;5091162;28;19995;-55
2023/09/03 09:42:12;;;;;;;;;;;21.60;65.40;;;;;;5097052;28;19977;-56
2023/09/03 09:44:39;;;;;;;;;;;21.60;65.40;;;;;;5096920;28;19908;-56
2023/09/03 09:47:22;;;;;;;;;;;21.70;65.60;;;;;;5096856;28;19912;-56
2023/09/03 09:49:48;;;;;;;;;;;21.60;65.30;;;;;;5081351;28;19921;-56
2023/09/03 09:52:14;;;;;;;;;;;21.70;65.40;;;;;;5076403;28;20371;-55
2023/09/03 09:54:40;;;;;;;;;;;21.70;65.30;;;;;;5087814;28;19919;-56
2023/09/03 09:57:24;;;;;;;;;;;21.70;65.00;;;;;;5076301;28;19919;-56
2023/09/03 09:59:52;;;;;;;;;;;21.70;65.00;;;;;;5076439;28;19913;-55
2023/09/03 10:02:19;;;;;;;;;;;21.70;65.10;;;;;;5082013;28;19919;-56
2023/09/03 10:04:47;;;;;;;;;;;21.70;65.40;;;;;;5096681;28;19908;-55
2023/09/03 10:07:13;;;;;;;;;;;21.70;65.10;;;;;;5095197;28;19908;-55
2023/09/03 10:09:39;;;;;;;;;;;21.80;65.20;;;;;;5093163;28;19916;-55
2023/09/03 10:12:04;;;;;;;;;;;21.70;64.70;;;;;;5096437;28;19955;-56
2023/09/03 10:14:30;;;;;;;;;;;21.70;64.90;;;;;;5096463;28;20253;-56
2023/09/03 10:16:56;;;;;;;;;;;21.70;64.70;;;;;;5094965;28;19977;-56
2023/09/03 10:19:23;;;;;;;;;;;21.80;64.70;;;;;;5093538;28;19912;-56
2023/09/03 10:21:49;;;;;;;;;;;21.70;64.60;;;;;;5095027;28;20259;-56
2023/09/03 10:24:15;;;;;;;;;;;21.70;64.70;;;;;;5093831;28;19913;-56
2023/09/03 10:26:41;;;;;;;;;;;21.70;64.60;;;;;;5075792;28;19909;-56
2023/09/03 10:29:07;;;;;;;;;;;21.70;64.70;;;;;;5082158;28;19912;-56
2023/09/03 10:31:33;;;;;;;;;;;21.70;64.60;;;;;;5094808;28;19996;-56
2023/09/03 10:33:58;;;;;;;;;;;21.80;64.70;;;;;;5095970;28;19912;-56
2023/09/03 10:36:23;;;;;;;;;;;21.70;64.40;;;;;;5095833;28;20045;-56
2023/09/03 10:38:49;;;;;;;;;;;21.80;64.30;;;;;;5092052;28;19927;-56
2023/09/03 10:41:24;;;;;;;;;;;21.80;64.20;;;;;;5095828;28;19918;-56
2023/09/03 10:43:53;;;;;;;;;;;21.80;64.20;;;;;;5094547;28;19912;-56
2023/09/03 10:46:18;;;;;;;;;;;21.80;64.20;;;;;;5095676;28;19912;-56
2023/09/03 10:48:51;;;;;;;;;;;21.80;64.50;;;;;;5092385;28;19908;-55
2023/09/03 10:51:30;;;;;;;;;;;21.80;64.30;;;;;;5093401;28;19920;-56
2023/09/03 10:53:56;;;;;;;;;;;21.90;63.90;;;;;;5093322;28;19977;-55
2023/09/03 10:56:22;;;;;;;;;;;21.90;63.50;;;;;;5077819;28;19908;-56
2023/09/03 10:58:52;;;;;;;;;;;21.90;63.80;;;;;;5075707;28;20388;-56
2023/09/03 11:01:22;;;;;;;;;;;21.90;63.80;;;;;;5095518;28;20284;-56
2023/09/03 11:03:52;;;;;;;;;;;21.90;64.10;;;;;;5095627;28;19915;-56
2023/09/03 11:06:21;;;;;;;;;;;22.00;63.30;;;;;;5095426;28;19930;-56
2023/09/03 11:08:47;;;;;;;;;;;22.00;62.90;;;;;;5095309;28;19995;-56
2023/09/03 11:11:19;;;;;;;;;;;22.10;63.10;;;;;;5092894;28;19916;-56
2023/09/03 11:13:49;;;;;;;;;;;22.10;63.00;;;;;;5095247;28;19944;-56
2023/09/03 11:16:14;;;;;;;;;;;22.10;62.80;;;;;;5095121;28;20372;-56
2023/09/03 11:18:39;;;;;;;;;;;22.10;63.00;;;;;;5094929;28;19926;-56
2023/09/03 11:21:05;;;;;;;;;;;22.10;62.80;;;;;;5090829;28;19918;-55
2023/09/03 11:23:30;;;;;;;;;;;22.00;62.90;;;;;;5095020;28;20021;-56
2023/09/03 11:25:56;;;;;;;;;;;22.00;63.10;;;;;;5087435;28;20394;-56
2023/09/03 11:28:22;;;;;;;;;;;22.00;63.30;;;;;;5094938;28;19922;-56
2023/09/03 11:30:47;;;;;;;;;;;22.00;63.30;;;;;;5094978;28;19980;-56
2023/09/03 11:33:25;;;;;;;;;;;21.90;63.30;;;;;;5094847;28;20003;-57
2023/09/03 11:35:50;;;;;;;;;;;21.90;63.40;;;;;;5093440;28;19918;-56
2023/09/03 11:38:16;;;;;;;;;;;21.90;63.40;;;;;;5092093;28;20011;-56
2023/09/03 11:40:41;;;;;;;;;;;22.00;63.30;;;;;;5080036;28;19912;-56
2023/09/03 11:43:12;;;;;;;;;;;22.00;63.30;;;;;;5074260;28;19909;-56
2023/09/03 11:45:38;;;;;;;;;;;22.00;62.90;;;;;;5081157;28;20372;-56
2023/09/03 11:48:06;;;;;;;;;;;22.10;62.80;;;;;;5089644;28;19912;-56
2023/09/03 11:50:32;;;;;;;;;;;22.10;63.20;;;;;;5092426;28;19920;-56
2023/09/03 11:52:58;;;;;;;;;;;22.10;63.20;;;;;;5094426;28;20350;-56
2023/09/03 11:55:26;;;;;;;;;;;22.10;62.30;;;;;;5091372;28;20364;-56
2023/09/03 11:57:51;;;;;;;;;;;22.10;61.20;;;;;;5094313;28;19912;-56
2023/09/03 12:00:17;;;;;;;;;;;22.00;60.90;;;;;;5094274;28;20209;-56
2023/09/03 12:02:43;;;;;;;;;;;22.10;61.10;;;;;;5093161;28;19908;-56
2023/09/03 12:05:08;;;;;;;;;;;22.10;61.10;;;;;;5091522;28;19966;-56
2023/09/03 12:07:34;;;;;;;;;;;22.10;61.80;;;;;;5094151;28;19908;-56
2023/09/03 12:09:59;;;;;;;;;;;22.20;61.40;;;;;;5091677;28;19927;-56
2023/09/03 12:12:25;;;;;;;;;;;22.30;61.40;;;;;;5094114;28;19915;-56
2023/09/03 12:14:50;;;;;;;;;;;22.20;61.20;;;;;;5093869;28;19908;-55
2023/09/03 12:17:22;;;;;;;;;;;22.10;61.20;;;;;;5092359;28;20375;-56
2023/09/03 12:19:48;;;;;;;;;;;22.20;61.50;;;;;;5094195;28;19916;-55
2023/09/03 12:22:13;;;;;;;;;;;22.20;61.80;;;;;;5093735;28;19908;-55
2023/09/03 12:24:39;;;;;;;;;;;22.20;62.00;;;;;;5090555;28;19933;-56
2023/09/03 12:27:05;;;;;;;;;;;22.20;62.20;;;;;;5072882;28;19912;-56
2023/09/03 12:29:38;;;;;;;;;;;22.20;62.30;;;;;;5073308;28;19916;-56
2023/09/03 12:32:04;;;;;;;;;;;22.10;62.20;;;;;;5073561;28;19908;-56
2023/09/03 12:34:36;;;;;;;;;;;22.20;61.90;;;;;;5073315;28;19919;-56
2023/09/03 12:37:01;;;;;;;;;;;22.20;61.90;;;;;;5084344;28;19920;-57
2023/09/03 12:39:33;;;;;;;;;;;22.20;61.80;;;;;;5093720;28;20017;-56
2023/09/03 12:41:59;;;;;;;;;;;22.20;61.80;;;;;;5091167;28;19935;-56
2023/09/03 12:44:24;;;;;;;;;;;22.20;61.70;;;;;;5093369;28;20330;-56
2023/09/03 12:46:50;;;;;;;;;;;22.30;61.50;;;;;;5093662;28;19959;-56
2023/09/03 12:49:16;;;;;;;;;;;22.30;60.80;;;;;;5091767;28;19920;-56
2023/09/03 12:51:41;;;;;;;;;;;22.30;61.10;;;;;;5093442;28;20007;-56
2023/09/03 12:54:10;;;;;;;;;;;22.30;61.30;;;;;;5093534;28;19908;-56
2023/09/03 12:56:35;;;;;;;;;;;22.30;61.60;;;;;;5082292;28;20398;-56
2023/09/03 12:59:07;;;;;;;;;;;22.30;61.40;;;;;;5093461;28;19955;-56
2023/09/03 13:01:32;;;;;;;;;;;22.30;61.10;;;;;;5091393;28;19908;-56
2023/09/03 13:03:58;;;;;;;;;;;22.40;60.50;;;;;;5093163;28;19915;-55
2023/09/03 13:06:24;;;;;;;;;;;22.30;61.10;;;;;;5091765;28;20332;-56
2023/09/03 13:08:49;;;;;;;;;;;22.40;60.90;;;;;;5092161;28;19946;-55
2023/09/03 13:11:15;;;;;;;;;;;22.40;60.70;;;;;;5090632;28;19912;-56
2023/09/03 13:13:40;;;;;;;;;;;22.40;60.50;;;;;;5093154;28;19908;-56
2023/09/03 13:16:06;;;;;;;;;;;22.40;60.90;;;;;;5093019;28;20003;-56
2023/09/03 13:18:31;;;;;;;;;;;22.40;61.30;;;;;;5091417;28;19916;-56
2023/09/03 13:20:57;;;;;;;;;;;22.30;61.20;;;;;;5093272;28;19919;-56
2023/09/03 13:23:22;;;;;;;;;;;22.30;61.20;;;;;;5091709;28;20383;-56
2023/09/03 13:25:48;;;;;;;;;;;22.30;61.20;;;;;;5087624;28;19953;-56
2023/09/03 13:28:13;;;;;;;;;;;22.40;61.20;;;;;;5092891;28;19918;-56
2023/09/03 13:30:39;;;;;;;;;;;22.30;61.10;;;;;;5091492;28;19912;-56
2023/09/03 13:33:04;;;;;;;;;;;22.40;61.20;;;;;;5091709;28;19912;-56
2023/09/03 13:35:30;;;;;;;;;;;22.40;61.50;;;;;;5059402;28;19915;-56
2023/09/03 13:37:56;;;;;;;;;;;22.40;61.40;;;;;;5052584;28;19921;-56
2023/09/03 13:40:21;;;;;;;;;;;22.50;61.30;;;;;;5058596;28;19909;-56
2023/09/03 13:42:46;;;;;;;;;;;22.50;61.30;;;;;;5092825;28;20336;-56
2023/09/03 13:45:12;;;;;;;;;;;22.50;61.50;;;;;;5092952;28;20260;-56
2023/09/03 13:47:38;;;;;;;;;;;22.50;61.10;;;;;;5092854;28;19908;-56
2023/09/03 13:50:05;;;;;;;;;;;22.50;61.20;;;;;;5091198;28;19920;-55
2023/09/03 13:52:31;;;;;;;;;;;22.50;61.10;;;;;;5092206;28;20284;-56
2023/09/03 13:54:57;;;;;;;;;;;22.50;61.40;;;;;;5086906;28;19939;-58
2023/09/03 13:57:23;;;;;;;;;;;22.50;61.30;;;;;;5089475;28;20008;-55
2023/09/03 13:59:48;;;;;;;;;;;22.50;61.40;;;;;;5092676;28;19913;-56
2023/09/03 14:02:14;;;;;;;;;;;22.50;61.60;;;;;;5091158;28;19931;-56
2023/09/03 14:04:39;;;;;;;;;;;22.40;61.70;;;;;;5091573;28;19920;-56
2023/09/03 14:07:05;;;;;;;;;;;22.40;61.40;;;;;;5092591;28;19908;-56
2023/09/03 14:09:30;;;;;;;;;;;22.50;61.60;;;;;;5092496;28;19908;-56
2023/09/03 14:11:56;;;;;;;;;;;22.40;61.30;;;;;;5090231;28;19915;-55